Edenderry, Ireland
Current Conditions -  °F | °C
As of 9:00 PM on Saturday 20 Dec 2014 (Local Time) from EIME Reporting Station
Broken Clouds Broken Clouds  
Wind Chill: 38°   Ceiling: 1200
Heat Index: 45°   Visibility: 6mi
Dew Point: 41°   Wind: 15mph
Humidity: 87%   Direction: 230°SW
Pressure: 30.33"   Gusts: NA
Location:  53.34°N, 7.05°W
Report Text: EIME 202100Z 23013KT 9999 BKN012 BKN033 07/05 Q1027
Loading
Personal Weather Stations






























Interactive Weather Map New forecast layout! Learn more

10-Day Weather Forecast

Advertisements
Track Severe Weather on mobile